Time;durP1;ratioP1;P1;durP2;ratioP2;P2;SDS_P1;SDS_P2;PMS_P1;PMS_P2;Temp;Humidity;BMP_temperature;BMP_pressure;BME280_temperature;BME280_humidity;BME280_pressure;Samples;Min_cycle;Max_cycle;Signal;HPM_P1;HPM_P2
2022/12/18 00:02:11;;;;;;;20.45;9.70;;;;;;;;;;5094562;28;20066;-76
2022/12/18 00:04:36;;;;;;;19.77;9.95;;;;;;;;;;5094914;28;20024;-75
2022/12/18 00:07:02;;;;;;;16.30;8.82;;;;;;;;;;5096774;28;20101;-77
2022/12/18 00:09:28;;;;;;;19.83;10.53;;;;;;;;;;5094942;28;20047;-76
2022/12/18 00:11:53;;;;;;;19.52;10.60;;;;;;;;;;5095581;28;20035;-76
2022/12/18 00:14:19;;;;;;;24.40;10.40;;;;;;;;;;5096125;28;20012;-77
2022/12/18 00:16:45;;;;;;;19.15;9.18;;;;;;;;;;5096999;28;20085;-77
2022/12/18 00:19:11;;;;;;;16.60;9.15;;;;;;;;;;5095995;28;20018;-76
2022/12/18 00:21:40;;;;;;;19.13;9.55;;;;;;;;;;5097978;28;20020;-76
2022/12/18 00:24:06;;;;;;;20.30;9.43;;;;;;;;;;5096524;28;20428;-76
2022/12/18 00:26:33;;;;;;;16.70;8.93;;;;;;;;;;5095279;28;20055;-76
2022/12/18 00:28:59;;;;;;;20.63;8.95;;;;;;;;;;5096148;28;20112;-75
2022/12/18 00:31:24;;;;;;;15.68;8.40;;;;;;;;;;5095337;28;20052;-76
2022/12/18 00:33:50;;;;;;;21.30;9.70;;;;;;;;;;5094814;28;20495;-77
2022/12/18 00:36:17;;;;;;;17.75;9.30;;;;;;;;;;5094448;28;20469;-77
2022/12/18 00:38:43;;;;;;;20.95;10.45;;;;;;;;;;5094203;28;20016;-78
2022/12/18 00:41:09;;;;;;;20.13;9.10;;;;;;;;;;5096973;28;20040;-78
2022/12/18 00:43:34;;;;;;;17.52;9.93;;;;;;;;;;5098744;28;20016;-77
2022/12/18 00:46:00;;;;;;;15.65;8.73;;;;;;;;;;5098462;28;20020;-77
2022/12/18 00:48:25;;;;;;;16.37;9.17;;;;;;;;;;5096285;28;20501;-78
2022/12/18 00:50:51;;;;;;;23.17;9.60;;;;;;;;;;5096409;28;20107;-78
2022/12/18 00:53:16;;;;;;;18.30;9.65;;;;;;;;;;5096527;28;20012;-79
2022/12/18 00:55:42;;;;;;;18.25;9.48;;;;;;;;;;5093948;28;20102;-77
2022/12/18 00:58:08;;;;;;;18.33;7.93;;;;;;;;;;5096171;28;20044;-76
2022/12/18 01:00:33;;;;;;;12.93;6.20;;;;;;;;;;5094055;28;20043;-77
2022/12/18 01:02:59;;;;;;;15.20;8.85;;;;;;;;;;5094387;28;20066;-77
2022/12/18 01:05:24;;;;;;;19.88;9.60;;;;;;;;;;5094590;28;20016;-77
2022/12/18 01:07:50;;;;;;;17.13;9.57;;;;;;;;;;5094821;28;20389;-77
2022/12/18 01:10:15;;;;;;;17.25;8.55;;;;;;;;;;5094694;28;20445;-77
2022/12/18 01:12:40;;;;;;;14.05;8.57;;;;;;;;;;5092493;28;20020;-79
2022/12/18 01:15:07;;;;;;;16.92;7.70;;;;;;;;;;5094353;28;20016;-79
2022/12/18 01:17:33;;;;;;;19.10;9.25;;;;;;;;;;5093070;28;20052;-78
2022/12/18 01:19:58;;;;;;;15.18;8.80;;;;;;;;;;5092990;28;20085;-79
2022/12/18 01:22:26;;;;;;;15.90;6.07;;;;;;;;;;5093337;28;20362;-78
2022/12/18 01:24:51;;;;;;;23.45;9.27;;;;;;;;;;5095103;28;20035;-79
2022/12/18 01:27:17;;;;;;;9.77;3.83;;;;;;;;;;5094832;28;20020;-77
2022/12/18 01:29:42;;;;;;;15.70;7.85;;;;;;;;;;5095472;28;20407;-76
2022/12/18 01:32:08;;;;;;;10.90;5.55;;;;;;;;;;5095907;28;20020;-78
2022/12/18 01:34:35;;;;;;;13.00;5.38;;;;;;;;;;5094779;28;20102;-77
2022/12/18 01:37:03;;;;;;;15.48;7.22;;;;;;;;;;5092610;28;20119;-78
2022/12/18 01:39:28;;;;;;;20.83;9.38;;;;;;;;;;5093410;28;20111;-77
2022/12/18 01:42:03;;;;;;;19.65;10.02;;;;;;;;;;5096242;28;20036;-77
2022/12/18 01:44:46;;;;;;;19.27;8.93;;;;;;;;;;5095429;28;20368;-77
2022/12/18 01:47:30;;;;;;;17.83;8.75;;;;;;;;;;5096069;28;20020;-77
2022/12/18 01:49:57;;;;;;;14.63;9.45;;;;;;;;;;5093569;28;20103;-77
2022/12/18 01:52:24;;;;;;;18.55;10.20;;;;;;;;;;5093201;28;20008;-77
2022/12/18 01:54:50;;;;;;;21.13;10.75;;;;;;;;;;5092796;28;20109;-76
2022/12/18 01:57:16;;;;;;;21.67;10.77;;;;;;;;;;5092971;28;20024;-76
2022/12/18 01:59:45;;;;;;;15.88;9.27;;;;;;;;;;5094692;28;20496;-76
2022/12/18 02:02:11;;;;;;;18.00;9.70;;;;;;;;;;5096590;28;20038;-77
2022/12/18 02:04:37;;;;;;;21.10;9.02;;;;;;;;;;5095821;28;20426;-77
2022/12/18 02:07:02;;;;;;;15.50;9.55;;;;;;;;;;5095806;28;20091;-77
2022/12/18 02:09:34;;;;;;;12.77;8.40;;;;;;;;;;5095456;28;20496;-76
2022/12/18 02:12:04;;;;;;;15.77;9.55;;;;;;;;;;5098441;28;20055;-75
2022/12/18 02:14:42;;;;;;;17.98;9.93;;;;;;;;;;5097691;28;20031;-76
2022/12/18 02:17:12;;;;;;;18.00;9.30;;;;;;;;;;5096216;28;20028;-76
2022/12/18 02:19:41;;;;;;;14.18;7.43;;;;;;;;;;5097527;28;20020;-78
2022/12/18 02:22:15;;;;;;;16.77;9.52;;;;;;;;;;5095576;28;20111;-77
2022/12/18 02:24:47;;;;;;;20.92;9.38;;;;;;;;;;5093712;28;20020;-77
2022/12/18 02:27:14;;;;;;;15.00;8.90;;;;;;;;;;5092806;28;20109;-78
2022/12/18 02:29:39;;;;;;;16.15;9.40;;;;;;;;;;5092981;28;20153;-78
2022/12/18 02:32:08;;;;;;;17.17;9.65;;;;;;;;;;5095540;28;20063;-78
2022/12/18 02:34:36;;;;;;;18.00;9.90;;;;;;;;;;5097126;28;20024;-77
2022/12/18 02:37:04;;;;;;;15.65;8.23;;;;;;;;;;5094719;28;20092;-78
2022/12/18 02:39:30;;;;;;;17.95;8.63;;;;;;;;;;5092798;28;20019;-77
2022/12/18 02:41:57;;;;;;;15.77;9.05;;;;;;;;;;5092507;28;20074;-76
2022/12/18 02:44:22;;;;;;;15.10;9.35;;;;;;;;;;5092417;28;20464;-76
2022/12/18 02:46:52;;;;;;;19.83;9.52;;;;;;;;;;5092286;28;20077;-78
2022/12/18 02:49:17;;;;;;;16.48;8.25;;;;;;;;;;5097322;28;20388;-78
2022/12/18 02:51:59;;;;;;;20.10;8.15;;;;;;;;;;5099603;28;20024;-78
2022/12/18 02:54:34;;;;;;;16.55;8.48;;;;;;;;;;5096932;28;20027;-76
2022/12/18 02:57:04;;;;;;;15.13;8.60;;;;;;;;;;5097857;28;20027;-77
2022/12/18 02:59:40;;;;;;;13.73;8.95;;;;;;;;;;5095507;28;20044;-76
2022/12/18 03:02:14;;;;;;;14.93;9.57;;;;;;;;;;5095686;28;20410;-77
2022/12/18 03:04:49;;;;;;;16.60;8.98;;;;;;;;;;5095439;28;20024;-77
2022/12/18 03:07:27;;;;;;;16.77;7.95;;;;;;;;;;5096620;28;20032;-76
2022/12/18 03:09:53;;;;;;;11.13;6.38;;;;;;;;;;5095414;28;20028;-76
2022/12/18 03:12:30;;;;;;;12.80;7.43;;;;;;;;;;5095460;28;20041;-77
2022/12/18 03:15:08;;;;;;;13.85;7.35;;;;;;;;;;5095419;28;20031;-76
2022/12/18 03:17:33;;;;;;;15.80;7.95;;;;;;;;;;5095907;28;20069;-76
2022/12/18 03:20:02;;;;;;;15.75;8.45;;;;;;;;;;5095659;28;20059;-75
2022/12/18 03:22:30;;;;;;;12.85;7.10;;;;;;;;;;5095464;28;20024;-76
2022/12/18 03:24:57;;;;;;;16.83;7.95;;;;;;;;;;5095461;28;20499;-76
2022/12/18 03:27:23;;;;;;;14.07;8.07;;;;;;;;;;5095722;28;20388;-74
2022/12/18 03:29:51;;;;;;;16.90;8.77;;;;;;;;;;5095398;28;20020;-76
2022/12/18 03:32:23;;;;;;;13.18;8.20;;;;;;;;;;5096684;28;20024;-76
2022/12/18 03:34:51;;;;;;;12.98;7.90;;;;;;;;;;5094880;28;20400;-75
2022/12/18 03:37:16;;;;;;;13.48;7.78;;;;;;;;;;5094965;28;20027;-75
2022/12/18 03:39:42;;;;;;;15.50;7.85;;;;;;;;;;5094873;28;20434;-76
2022/12/18 03:42:11;;;;;;;14.05;7.55;;;;;;;;;;5094944;28;20365;-74
2022/12/18 03:44:41;;;;;;;13.85;7.30;;;;;;;;;;5096258;28;20087;-74
2022/12/18 03:47:24;;;;;;;13.88;7.45;;;;;;;;;;5095844;28;20107;-73
2022/12/18 03:49:53;;;;;;;13.77;8.23;;;;;;;;;;5096140;28;20027;-74
2022/12/18 03:52:21;;;;;;;14.43;7.78;;;;;;;;;;5096090;28;20051;-74
2022/12/18 03:54:47;;;;;;;13.43;7.65;;;;;;;;;;5096017;28;20051;-75
2022/12/18 03:57:21;;;;;;;16.25;7.55;;;;;;;;;;5094719;28;20012;-74
2022/12/18 03:59:49;;;;;;;11.95;7.60;;;;;;;;;;5094417;28;20057;-74
2022/12/18 04:02:16;;;;;;;10.82;6.57;;;;;;;;;;5095810;28;20030;-76
2022/12/18 04:04:42;;;;;;;14.38;7.50;;;;;;;;;;5094448;28;20089;-75
2022/12/18 04:07:08;;;;;;;16.42;8.05;;;;;;;;;;5094777;28;20507;-75
2022/12/18 04:09:34;;;;;;;11.00;4.97;;;;;;;;;;5094697;28;20035;-76
2022/12/18 04:11:59;;;;;;;10.85;5.85;;;;;;;;;;5094729;28;20111;-76
2022/12/18 04:14:25;;;;;;;10.82;5.38;;;;;;;;;;5094522;28;20543;-73
2022/12/18 04:16:50;;;;;;;12.55;7.90;;;;;;;;;;5094713;28;20020;-75
2022/12/18 04:19:16;;;;;;;13.50;7.57;;;;;;;;;;5094342;28;20388;-74
2022/12/18 04:21:41;;;;;;;11.93;7.43;;;;;;;;;;5094521;28;20043;-74
2022/12/18 04:24:07;;;;;;;14.15;7.10;;;;;;;;;;5094948;28;20016;-74
2022/12/18 04:26:32;;;;;;;12.40;7.20;;;;;;;;;;5094733;28;20061;-75
2022/12/18 04:28:58;;;;;;;13.15;7.47;;;;;;;;;;5094334;28;20027;-74
2022/12/18 04:31:23;;;;;;;11.30;6.80;;;;;;;;;;5094284;28;20077;-74
2022/12/18 04:33:49;;;;;;;11.00;6.00;;;;;;;;;;5095428;28;20107;-74
2022/12/18 04:36:14;;;;;;;18.08;7.90;;;;;;;;;;5097174;28;20533;-74
2022/12/18 04:38:39;;;;;;;16.80;8.05;;;;;;;;;;5095180;28;20016;-73
2022/12/18 04:41:05;;;;;;;18.67;7.63;;;;;;;;;;5094093;28;20024;-76
2022/12/18 04:43:32;;;;;;;13.68;7.32;;;;;;;;;;5096322;28;20443;-75
2022/12/18 04:46:01;;;;;;;16.55;7.38;;;;;;;;;;5096752;28;20020;-74
2022/12/18 04:48:28;;;;;;;14.68;7.28;;;;;;;;;;5095181;28;20020;-75
2022/12/18 04:50:53;;;;;;;14.13;6.55;;;;;;;;;;5094021;28;20023;-79
2022/12/18 04:53:19;;;;;;;13.30;7.13;;;;;;;;;;5095376;28;20023;-72
2022/12/18 04:55:44;;;;;;;13.40;7.18;;;;;;;;;;5095073;28;20055;-74
2022/12/18 04:58:10;;;;;;;15.68;7.63;;;;;;;;;;5094397;28;20416;-74
2022/12/18 05:00:35;;;;;;;16.98;7.28;;;;;;;;;;5094790;28;20038;-74
2022/12/18 05:03:02;;;;;;;16.23;7.40;;;;;;;;;;5094363;28;20032;-74
2022/12/18 05:05:27;;;;;;;11.02;6.70;;;;;;;;;;5094684;28;20024;-74
2022/12/18 05:07:52;;;;;;;13.80;7.38;;;;;;;;;;5093178;28;20016;-73
2022/12/18 05:10:18;;;;;;;14.98;8.05;;;;;;;;;;5092921;28;20353;-73
2022/12/18 05:12:58;;;;;;;12.90;6.63;;;;;;;;;;5094044;28;20091;-74
2022/12/18 05:15:28;;;;;;;15.18;6.97;;;;;;;;;;5094638;28;20032;-73
2022/12/18 05:17:54;;;;;;;14.50;8.23;;;;;;;;;;5093965;28;20036;-74
2022/12/18 05:20:20;;;;;;;14.63;7.30;;;;;;;;;;5093526;28;20126;-73
2022/12/18 05:22:46;;;;;;;20.42;8.20;;;;;;;;;;5093878;28;20103;-73
2022/12/18 05:25:11;;;;;;;16.50;7.40;;;;;;;;;;5092187;28;20448;-74
2022/12/18 05:27:36;;;;;;;15.27;6.97;;;;;;;;;;5092262;28;20483;-72
2022/12/18 05:30:02;;;;;;;12.43;6.00;;;;;;;;;;5092685;28;20021;-73
2022/12/18 05:32:28;;;;;;;15.05;6.65;;;;;;;;;;5093675;28;20012;-72
2022/12/18 05:34:53;;;;;;;12.93;7.10;;;;;;;;;;5092088;28;20491;-72
2022/12/18 05:37:20;;;;;;;19.08;8.45;;;;;;;;;;5092796;28;20434;-73
2022/12/18 05:39:46;;;;;;;15.00;6.87;;;;;;;;;;5095448;28;20032;-74
2022/12/18 05:42:11;;;;;;;11.77;7.03;;;;;;;;;;5096065;28;20384;-74
2022/12/18 05:44:36;;;;;;;15.35;7.32;;;;;;;;;;5093606;28;20106;-74
2022/12/18 05:47:02;;;;;;;13.80;7.43;;;;;;;;;;5091992;28;20502;-73
2022/12/18 05:49:27;;;;;;;12.80;6.10;;;;;;;;;;5093593;28;20046;-74
2022/12/18 05:51:53;;;;;;;15.88;7.53;;;;;;;;;;5092073;28;20020;-72
2022/12/18 05:54:18;;;;;;;10.93;6.28;;;;;;;;;;5093292;28;20023;-72
2022/12/18 05:56:45;;;;;;;8.82;5.07;;;;;;;;;;5092840;28;20107;-75
2022/12/18 05:59:11;;;;;;;11.02;6.88;;;;;;;;;;5094378;28;20131;-77
2022/12/18 06:01:36;;;;;;;12.43;6.85;;;;;;;;;;5095452;28;20066;-73
2022/12/18 06:04:03;;;;;;;13.02;6.40;;;;;;;;;;5094582;28;20012;-72
2022/12/18 06:06:28;;;;;;;13.48;6.18;;;;;;;;;;5095075;28;20024;-73
2022/12/18 06:08:54;;;;;;;12.80;6.40;;;;;;;;;;5093627;28;20529;-73
2022/12/18 06:11:22;;;;;;;12.40;5.70;;;;;;;;;;5092993;28;20024;-71
2022/12/18 06:13:50;;;;;;;18.80;7.15;;;;;;;;;;5092893;28;20465;-71
2022/12/18 06:16:15;;;;;;;14.05;6.63;;;;;;;;;;5093165;28;20008;-72
2022/12/18 06:18:40;;;;;;;10.63;6.43;;;;;;;;;;5093715;28;20476;-74
2022/12/18 06:21:06;;;;;;;10.27;6.20;;;;;;;;;;5094640;28;20028;-71
2022/12/18 06:23:32;;;;;;;10.55;6.28;;;;;;;;;;5093544;28;20016;-73
2022/12/18 06:25:58;;;;;;;12.88;6.40;;;;;;;;;;5091582;28;20380;-71
2022/12/18 06:28:23;;;;;;;14.77;6.63;;;;;;;;;;5093205;28;20036;-70
2022/12/18 06:30:49;;;;;;;13.10;5.57;;;;;;;;;;5091750;28;20410;-71
2022/12/18 06:33:15;;;;;;;14.45;6.57;;;;;;;;;;5093093;28;20023;-71
2022/12/18 06:35:42;;;;;;;12.10;7.03;;;;;;;;;;5091504;28;20023;-71
2022/12/18 06:38:07;;;;;;;8.55;5.13;;;;;;;;;;5091502;28;20063;-71
2022/12/18 06:40:33;;;;;;;11.20;6.47;;;;;;;;;;5092581;28;20060;-70
2022/12/18 06:42:59;;;;;;;13.40;5.72;;;;;;;;;;5091580;28;20110;-71
2022/12/18 06:45:24;;;;;;;14.88;7.40;;;;;;;;;;5093091;28;20024;-72
2022/12/18 06:47:50;;;;;;;12.57;6.03;;;;;;;;;;5091307;28;20027;-70
2022/12/18 06:50:15;;;;;;;11.30;6.07;;;;;;;;;;5091505;28;20154;-70
2022/12/18 06:52:42;;;;;;;12.07;6.75;;;;;;;;;;5092637;28;20023;-70
2022/12/18 06:55:08;;;;;;;12.88;6.40;;;;;;;;;;5093397;28;20031;-71
2022/12/18 06:57:33;;;;;;;13.15;6.60;;;;;;;;;;5095021;28;20012;-69
2022/12/18 06:59:59;;;;;;;13.93;7.85;;;;;;;;;;5095529;28;20081;-70
2022/12/18 07:02:24;;;;;;;15.52;7.20;;;;;;;;;;5091774;28;20030;-70
2022/12/18 07:04:51;;;;;;;15.98;7.78;;;;;;;;;;5091600;28;20024;-70
2022/12/18 07:07:16;;;;;;;15.90;7.10;;;;;;;;;;5092150;28;20038;-72
2022/12/18 07:09:42;;;;;;;13.23;6.65;;;;;;;;;;5091074;28;20020;-69
2022/12/18 07:12:07;;;;;;;15.07;6.43;;;;;;;;;;5093037;28;20020;-71
2022/12/18 07:14:33;;;;;;;15.65;6.75;;;;;;;;;;5092683;28;20060;-70
2022/12/18 07:16:58;;;;;;;15.55;8.15;;;;;;;;;;5090928;28;20113;-70
2022/12/18 07:19:25;;;;;;;15.05;7.28;;;;;;;;;;5091405;28;20032;-71
2022/12/18 07:21:51;;;;;;;16.10;8.02;;;;;;;;;;5091052;28;20063;-71
2022/12/18 07:24:16;;;;;;;15.38;7.20;;;;;;;;;;5092846;28;20091;-70
2022/12/18 07:26:42;;;;;;;15.60;7.70;;;;;;;;;;5092480;28;20043;-70
2022/12/18 07:29:08;;;;;;;14.30;7.38;;;;;;;;;;5092011;28;20020;-72
2022/12/18 07:31:34;;;;;;;15.52;7.65;;;;;;;;;;5092587;28;20116;-69
2022/12/18 07:33:59;;;;;;;13.73;7.35;;;;;;;;;;5092566;28;20051;-71
2022/12/18 07:36:25;;;;;;;14.25;8.02;;;;;;;;;;5094144;28;20456;-70
2022/12/18 07:38:52;;;;;;;16.55;8.18;;;;;;;;;;5095951;28;20022;-69
2022/12/18 07:41:18;;;;;;;18.55;8.02;;;;;;;;;;5095598;28;20036;-70
2022/12/18 07:43:44;;;;;;;14.90;7.60;;;;;;;;;;5094693;28;20111;-69
2022/12/18 07:46:10;;;;;;;14.82;8.15;;;;;;;;;;5095609;28;20070;-69
2022/12/18 07:48:36;;;;;;;13.73;7.18;;;;;;;;;;5094296;28;20021;-69
2022/12/18 07:51:04;;;;;;;15.95;7.97;;;;;;;;;;5094107;28;20030;-70
2022/12/18 07:53:31;;;;;;;18.88;6.90;;;;;;;;;;5094844;28;20069;-70
2022/12/18 07:56:01;;;;;;;12.18;7.22;;;;;;;;;;5098795;28;20024;-69
2022/12/18 07:58:26;;;;;;;15.95;8.50;;;;;;;;;;5098029;28;20044;-69
2022/12/18 08:00:52;;;;;;;11.52;5.95;;;;;;;;;;5095658;28;20031;-69
2022/12/18 08:03:18;;;;;;;18.05;7.60;;;;;;;;;;5093552;28;20023;-69
2022/12/18 08:05:43;;;;;;;11.38;4.88;;;;;;;;;;5093396;28;20020;-69
2022/12/18 08:08:10;;;;;;;15.18;7.60;;;;;;;;;;5093803;28;20499;-69
2022/12/18 08:10:37;;;;;;;18.40;7.95;;;;;;;;;;5094754;28;20413;-68
2022/12/18 08:13:02;;;;;;;16.40;7.63;;;;;;;;;;5093550;28;20024;-68
2022/12/18 08:15:28;;;;;;;16.15;7.88;;;;;;;;;;5093784;28;20099;-67
2022/12/18 08:17:56;;;;;;;13.52;7.18;;;;;;;;;;5093748;28;20027;-68
2022/12/18 08:20:21;;;;;;;17.48;8.93;;;;;;;;;;5094822;28;20039;-71
2022/12/18 08:22:48;;;;;;;9.90;5.00;;;;;;;;;;5095016;28;20012;-67
2022/12/18 08:25:13;;;;;;;14.75;8.80;;;;;;;;;;5093561;28;20081;-66
2022/12/18 08:27:38;;;;;;;13.90;6.97;;;;;;;;;;5094577;28;20012;-68
2022/12/18 08:30:04;;;;;;;12.13;5.53;;;;;;;;;;5093097;28;20111;-67
2022/12/18 08:32:30;;;;;;;15.20;8.40;;;;;;;;;;5093034;28;20016;-66
2022/12/18 08:34:58;;;;;;;16.23;8.65;;;;;;;;;;5092986;28;20016;-67
2022/12/18 08:37:23;;;;;;;18.02;9.55;;;;;;;;;;5094328;28;20020;-65
2022/12/18 08:39:49;;;;;;;14.27;6.78;;;;;;;;;;5092750;28;20035;-65
2022/12/18 08:44:59;;;;;;;11.13;5.88;;;;;;;;;;5094291;28;20117;-65
2022/12/18 08:47:25;;;;;;;13.18;6.80;;;;;;;;;;5092669;28;20054;-64
2022/12/18 08:49:51;;;;;;;14.05;7.22;;;;;;;;;;5094114;28;20031;-67
2022/12/18 08:52:16;;;;;;;17.15;7.43;;;;;;;;;;5092940;28;20024;-66
2022/12/18 08:54:42;;;;;;;14.95;7.93;;;;;;;;;;5094040;28;20074;-67
2022/12/18 08:57:07;;;;;;;10.13;6.00;;;;;;;;;;5093446;28;20024;-66
2022/12/18 08:59:32;;;;;;;18.67;6.75;;;;;;;;;;5091924;28;20040;-67
2022/12/18 09:01:58;;;;;;;12.98;7.00;;;;;;;;;;5092476;28;20044;-67
2022/12/18 09:04:23;;;;;;;14.73;6.95;;;;;;;;;;5093779;28;20461;-67
2022/12/18 09:06:49;;;;;;;15.68;8.77;;;;;;;;;;5094658;28;20008;-67
2022/12/18 09:09:16;;;;;;;11.15;5.82;;;;;;;;;;5095039;28;20478;-66
2022/12/18 09:11:41;;;;;;;13.07;6.72;;;;;;;;;;5092866;28;20027;-66
2022/12/18 09:14:08;;;;;;;15.35;6.85;;;;;;;;;;5093717;28;20020;-67
2022/12/18 09:16:34;;;;;;;12.50;6.57;;;;;;;;;;5092472;28;20027;-67
2022/12/18 09:19:02;;;;;;;17.25;9.40;;;;;;;;;;5092160;28;20016;-67
2022/12/18 09:21:29;;;;;;;9.98;5.65;;;;;;;;;;5093310;28;20028;-65
2022/12/18 09:23:55;;;;;;;17.50;7.63;;;;;;;;;;5093435;28;20106;-64
2022/12/18 09:26:21;;;;;;;20.05;9.20;;;;;;;;;;5091902;28;20052;-65
2022/12/18 09:28:47;;;;;;;15.45;7.13;;;;;;;;;;5091943;28;20032;-68
2022/12/18 09:31:12;;;;;;;15.55;7.65;;;;;;;;;;5092260;28;20020;-66
2022/12/18 09:33:38;;;;;;;18.67;8.57;;;;;;;;;;5094802;28;20020;-66
2022/12/18 09:36:05;;;;;;;16.45;8.75;;;;;;;;;;5092203;28;20048;-66
2022/12/18 09:38:31;;;;;;;17.27;7.82;;;;;;;;;;5093229;28;20020;-67
2022/12/18 09:40:58;;;;;;;18.35;8.90;;;;;;;;;;5091128;28;20499;-70
2022/12/18 09:43:47;;;;;;;16.08;8.68;;;;;;;;;;5092646;28;20047;-69
2022/12/18 09:46:17;;;;;;;17.55;9.60;;;;;;;;;;5079544;28;20031;-68
2022/12/18 09:48:45;;;;;;;17.52;9.48;;;;;;;;;;5092311;28;20107;-67
2022/12/18 09:51:16;;;;;;;15.82;9.15;;;;;;;;;;5092717;28;20024;-70
2022/12/18 09:53:43;;;;;;;15.38;7.63;;;;;;;;;;5092652;28;20142;-70
2022/12/18 09:56:12;;;;;;;20.02;8.88;;;;;;;;;;5092001;28;20027;-67
2022/12/18 09:58:37;;;;;;;22.52;10.02;;;;;;;;;;5090276;28;20404;-68
2022/12/18 10:01:09;;;;;;;17.23;8.25;;;;;;;;;;5092023;28;20028;-69
2022/12/18 10:03:35;;;;;;;11.90;5.47;;;;;;;;;;5092430;28;20092;-71
2022/12/18 10:06:15;;;;;;;19.55;5.53;;;;;;;;;;5090979;28;20043;-71
2022/12/18 10:08:43;;;;;;;16.52;9.13;;;;;;;;;;5092641;28;20023;-70
2022/12/18 10:11:21;;;;;;;23.20;10.63;;;;;;;;;;5090838;28;20026;-70
2022/12/18 10:13:53;;;;;;;17.15;8.65;;;;;;;;;;5090882;28;20034;-70
2022/12/18 10:16:25;;;;;;;20.80;9.70;;;;;;;;;;5091036;28;20028;-68
2022/12/18 10:18:57;;;;;;;17.52;7.22;;;;;;;;;;5092181;28;20012;-72
2022/12/18 10:21:28;;;;;;;18.10;9.68;;;;;;;;;;5092040;28;20464;-69
2022/12/18 10:23:53;;;;;;;13.95;6.32;;;;;;;;;;5090947;28;20044;-66
2022/12/18 10:26:19;;;;;;;17.38;9.38;;;;;;;;;;5092469;28;20027;-66
2022/12/18 10:28:45;;;;;;;18.42;9.32;;;;;;;;;;5090687;28;20441;-68
2022/12/18 10:31:18;;;;;;;12.95;7.18;;;;;;;;;;5090506;28;20024;-67
2022/12/18 10:33:44;;;;;;;17.40;8.48;;;;;;;;;;5091977;28;20035;-67
2022/12/18 10:36:10;;;;;;;15.27;7.22;;;;;;;;;;5092121;28;20024;-67
2022/12/18 10:38:35;;;;;;;15.00;9.00;;;;;;;;;;5091445;28;20518;-68
2022/12/18 10:41:02;;;;;;;16.25;8.55;;;;;;;;;;5090472;28;20035;-69
2022/12/18 10:43:29;;;;;;;14.32;6.88;;;;;;;;;;5090818;28;20016;-69
2022/12/18 10:46:07;;;;;;;15.48;8.20;;;;;;;;;;5092092;28;20016;-68
2022/12/18 10:48:39;;;;;;;15.80;8.90;;;;;;;;;;5090633;28;20028;-69
2022/12/18 10:51:06;;;;;;;21.13;8.52;;;;;;;;;;5090616;28;20106;-69
2022/12/18 10:53:32;;;;;;;15.27;8.30;;;;;;;;;;5090263;28;20080;-69
2022/12/18 10:55:58;;;;;;;15.52;8.30;;;;;;;;;;5090365;28;20468;-69
2022/12/18 10:58:24;;;;;;;14.73;8.07;;;;;;;;;;5091322;28;20144;-71
2022/12/18 11:01:06;;;;;;;15.20;5.88;;;;;;;;;;5089968;28;20028;-71
2022/12/18 11:03:35;;;;;;;14.68;8.05;;;;;;;;;;5091681;28;20110;-67
2022/12/18 11:06:12;;;;;;;17.08;8.23;;;;;;;;;;5090284;28;20459;-67
2022/12/18 11:08:38;;;;;;;16.10;8.63;;;;;;;;;;5089872;28;20031;-68
2022/12/18 11:11:06;;;;;;;16.98;8.32;;;;;;;;;;5093650;28;20016;-67
2022/12/18 11:13:32;;;;;;;13.70;6.07;;;;;;;;;;5094453;28;20400;-67
2022/12/18 11:15:58;;;;;;;14.73;8.75;;;;;;;;;;5095436;28;20020;-68
2022/12/18 11:18:24;;;;;;;17.35;8.30;;;;;;;;;;5094070;28;20042;-67
2022/12/18 11:20:50;;;;;;;16.05;9.00;;;;;;;;;;5096266;28;20077;-67
2022/12/18 11:23:16;;;;;;;15.23;8.35;;;;;;;;;;5093924;28;20542;-67
2022/12/18 11:25:50;;;;;;;13.50;7.93;;;;;;;;;;5094181;28;20115;-68
2022/12/18 11:28:26;;;;;;;11.80;5.63;;;;;;;;;;5095504;28;20040;-69
2022/12/18 11:31:12;;;;;;;12.18;6.25;;;;;;;;;;5094331;28;20024;-67
2022/12/18 11:33:40;;;;;;;14.73;7.00;;;;;;;;;;5084121;28;20028;-68
2022/12/18 11:36:07;;;;;;;15.35;8.73;;;;;;;;;;5093685;28;20017;-68
2022/12/18 11:38:37;;;;;;;14.85;6.18;;;;;;;;;;5095885;28;20024;-66
2022/12/18 11:41:03;;;;;;;11.98;6.60;;;;;;;;;;5095097;28;20124;-67
2022/12/18 11:43:34;;;;;;;14.27;8.00;;;;;;;;;;5094289;28;20065;-67
2022/12/18 11:46:09;;;;;;;11.82;6.72;;;;;;;;;;5094868;28;20487;-67
2022/12/18 11:48:47;;;;;;;12.50;7.38;;;;;;;;;;5093494;28;20024;-68
2022/12/18 11:51:40;;;;;;;13.90;7.38;;;;;;;;;;5093507;28;20048;-68
2022/12/18 11:54:15;;;;;;;10.82;6.45;;;;;;;;;;5062908;28;20036;-68
2022/12/18 11:56:50;;;;;;;13.32;7.85;;;;;;;;;;5094556;28;20099;-69
2022/12/18 11:59:26;;;;;;;11.30;6.35;;;;;;;;;;5092984;28;20546;-69
2022/12/18 12:01:55;;;;;;;17.13;7.72;;;;;;;;;;5093281;28;20385;-69
2022/12/18 12:04:41;;;;;;;13.38;7.65;;;;;;;;;;5093542;28;20357;-67
2022/12/18 12:07:25;;;;;;;11.23;4.60;;;;;;;;;;5092856;28;20016;-69
2022/12/18 12:09:56;;;;;;;19.58;7.18;;;;;;;;;;5093044;28;20024;-68
2022/12/18 12:12:45;;;;;;;11.55;5.75;;;;;;;;;;5093224;28;20020;-69
2022/12/18 12:15:17;;;;;;;9.80;5.93;;;;;;;;;;5092571;28;20093;-68
2022/12/18 12:17:47;;;;;;;14.38;7.45;;;;;;;;;;5094480;28;20023;-69
2022/12/18 12:20:19;;;;;;;15.85;6.80;;;;;;;;;;5094003;28;20111;-67
2022/12/18 12:22:47;;;;;;;14.35;7.57;;;;;;;;;;5094257;28;20035;-68
2022/12/18 12:25:28;;;;;;;11.45;5.07;;;;;;;;;;5092827;28;20020;-67
2022/12/18 12:28:06;;;;;;;10.77;6.93;;;;;;;;;;5094291;28;20027;-68
2022/12/18 12:30:53;;;;;;;17.35;7.35;;;;;;;;;;5092113;28;20028;-68
2022/12/18 12:33:40;;;;;;;12.07;6.68;;;;;;;;;;5094174;28;20121;-67
2022/12/18 12:36:30;;;;;;;12.35;6.88;;;;;;;;;;5092379;28;20027;-67
2022/12/18 12:38:57;;;;;;;14.20;6.30;;;;;;;;;;5093459;28;20031;-75
2022/12/18 12:44:16;;;;;;;7.05;3.13;;;;;;;;;;5093866;28;20039;-69
2022/12/18 12:46:42;;;;;;;12.02;5.28;;;;;;;;;;5093738;28;20024;-68
2022/12/18 12:49:21;;;;;;;13.57;6.78;;;;;;;;;;5091605;28;20026;-67
2022/12/18 12:51:52;;;;;;;8.63;4.40;;;;;;;;;;5092035;28;20024;-69
2022/12/18 12:54:20;;;;;;;12.27;4.88;;;;;;;;;;5094052;28;20016;-69
2022/12/18 12:56:52;;;;;;;13.27;4.82;;;;;;;;;;5093244;28;20468;-67
2022/12/18 12:59:26;;;;;;;16.20;5.32;;;;;;;;;;5092815;28;20048;-70
2022/12/18 13:01:52;;;;;;;13.63;6.80;;;;;;;;;;5093807;28;20039;-69
2022/12/18 13:04:17;;;;;;;9.30;4.55;;;;;;;;;;5094596;28;20028;-69
2022/12/18 13:06:50;;;;;;;11.23;4.63;;;;;;;;;;5093572;28;20020;-67
2022/12/18 13:09:16;;;;;;;11.30;5.50;;;;;;;;;;5093348;28;20410;-68
2022/12/18 13:14:40;;;;;;;10.52;4.40;;;;;;;;;;5093261;28;20130;-68
2022/12/18 13:17:14;;;;;;;8.23;4.07;;;;;;;;;;5094440;28;20031;-67
2022/12/18 13:19:39;;;;;;;10.43;4.67;;;;;;;;;;5095763;28;20567;-68
2022/12/18 13:22:20;;;;;;;14.45;4.35;;;;;;;;;;5093920;28;20107;-68
2022/12/18 13:24:45;;;;;;;8.55;5.18;;;;;;;;;;5093150;28;20472;-69
2022/12/18 13:27:30;;;;;;;12.73;5.63;;;;;;;;;;5091834;28;20068;-68
2022/12/18 13:29:56;;;;;;;8.77;3.53;;;;;;;;;;5092021;28;20059;-70
2022/12/18 13:32:23;;;;;;;8.27;4.25;;;;;;;;;;5091640;28;20047;-68
2022/12/18 13:34:49;;;;;;;8.23;3.63;;;;;;;;;;5092058;28;20031;-67
2022/12/18 13:37:39;;;;;;;8.52;3.78;;;;;;;;;;5090844;28;20119;-67
2022/12/18 13:40:24;;;;;;;9.30;4.03;;;;;;;;;;5092855;28;20551;-67
2022/12/18 13:45:40;;;;;;;6.15;3.28;;;;;;;;;;5094517;28;20078;-67
2022/12/18 13:48:13;;;;;;;10.40;3.75;;;;;;;;;;5091925;28;20050;-68
2022/12/18 13:50:39;;;;;;;8.90;3.50;;;;;;;;;;5091618;28;20494;-68
2022/12/18 13:53:05;;;;;;;10.50;3.90;;;;;;;;;;5091581;28;20028;-69
2022/12/18 13:55:30;;;;;;;8.88;2.38;;;;;;;;;;5092364;28;20066;-68
2022/12/18 13:58:05;;;;;;;6.57;2.83;;;;;;;;;;5091690;28;20027;-69
2022/12/18 14:00:31;;;;;;;11.45;4.28;;;;;;;;;;5092606;28;20051;-69
2022/12/18 14:02:59;;;;;;;5.45;3.03;;;;;;;;;;5090941;28;20132;-69
2022/12/18 14:05:32;;;;;;;4.68;2.92;;;;;;;;;;5092339;28;20031;-69
2022/12/18 14:08:05;;;;;;;7.65;3.65;;;;;;;;;;5090515;28;20026;-67
2022/12/18 14:10:30;;;;;;;8.38;3.30;;;;;;;;;;5090612;28;20130;-70
2022/12/18 14:13:05;;;;;;;8.25;2.67;;;;;;;;;;5090496;28;20028;-77
2022/12/18 14:15:31;;;;;;;10.98;3.65;;;;;;;;;;5090796;28;20423;-67
2022/12/18 14:18:00;;;;;;;5.00;2.20;;;;;;;;;;5092111;28;20024;-68
2022/12/18 14:20:26;;;;;;;11.38;4.05;;;;;;;;;;5092079;28;20036;-68
2022/12/18 14:22:52;;;;;;;10.77;3.20;;;;;;;;;;5091931;28;20016;-68
2022/12/18 14:25:19;;;;;;;6.70;3.38;;;;;;;;;;5090614;28;20020;-67
2022/12/18 14:27:47;;;;;;;8.35;2.47;;;;;;;;;;5090339;28;20016;-69
2022/12/18 14:30:27;;;;;;;4.55;2.58;;;;;;;;;;5092090;28;20468;-69
2022/12/18 14:33:12;;;;;;;9.70;3.72;;;;;;;;;;5090649;28;20024;-69
2022/12/18 14:35:39;;;;;;;12.38;2.17;;;;;;;;;;5090756;28;20112;-69
2022/12/18 14:38:22;;;;;;;7.90;3.00;;;;;;;;;;5090845;28;20038;-69
2022/12/18 14:40:51;;;;;;;6.28;2.25;;;;;;;;;;5090570;28;20480;-69
2022/12/18 14:43:19;;;;;;;5.90;2.92;;;;;;;;;;5091817;28;20096;-69
2022/12/18 14:45:47;;;;;;;10.85;3.25;;;;;;;;;;5095005;28;20041;-69
2022/12/18 14:48:12;;;;;;;8.80;3.20;;;;;;;;;;5095912;28;20360;-70
2022/12/18 14:50:37;;;;;;;11.45;3.20;;;;;;;;;;5095206;28;20035;-68